Time;durP1;ratioP1;P1;durP2;ratioP2;P2;SDS_P1;SDS_P2;PMS_P1;PMS_P2;Temp;Humidity;BMP_temperature;BMP_pressure;BME280_temperature;BME280_humidity;BME280_pressure;Samples;Min_cycle;Max_cycle;Signal;HPM_P1;HPM_P2
2024/04/15 00:01:56;;;;;;;;;;;;;;;15.59;100.00;98915.93;106068;1257;75087;-81
2024/04/15 00:04:24;;;;;;;;;;;;;;;15.65;100.00;98918.29;106093;1253;68425;-81
2024/04/15 00:06:51;;;;;;;;;;;;;;;15.81;100.00;98920.73;106039;1255;71503;-81
2024/04/15 00:09:19;;;;;;;;;;;;;;;15.82;100.00;98919.64;106070;1257;62050;-81
2024/04/15 00:11:47;;;;;;;;;;;;;;;15.73;100.00;98919.92;106026;1256;62001;-80
2024/04/15 00:14:14;;;;;;;;;;;;;;;15.66;100.00;98914.33;105916;1253;74237;-81
2024/04/15 00:16:42;;;;;;;;;;;;;;;15.53;100.00;98911.27;105992;1253;68705;-80
2024/04/15 00:19:10;;;;;;;;;;;;;;;15.41;100.00;98908.07;105988;1257;73045;-80
2024/04/15 00:21:38;;;;;;;;;;;;;;;15.33;100.00;98908.02;105924;1254;63296;-80
2024/04/15 00:24:06;;;;;;;;;;;;;;;15.35;100.00;98912.51;105933;1254;62157;-80
2024/04/15 00:26:34;;;;;;;;;;;;;;;15.01;100.00;98913.63;105944;1260;75457;-80
2024/04/15 00:29:01;;;;;;;;;;;;;;;14.94;100.00;98924.36;105905;1254;67752;-79
2024/04/15 00:31:29;;;;;;;;;;;;;;;14.87;100.00;98929.63;105902;1254;71493;-80
2024/04/15 00:33:56;;;;;;;;;;;;;;;14.82;100.00;98935.23;105975;1257;62226;-81
2024/04/15 00:36:24;;;;;;;;;;;;;;;14.64;100.00;98931.30;105926;1254;62150;-80
2024/04/15 00:38:51;;;;;;;;;;;;;;;14.63;100.00;98930.73;105866;1260;77304;-80
2024/04/15 00:41:19;;;;;;;;;;;;;;;14.47;100.00;98930.20;105930;1254;70838;-80
2024/04/15 00:43:46;;;;;;;;;;;;;;;14.36;100.00;98931.08;105905;1257;73524;-80
2024/04/15 00:46:13;;;;;;;;;;;;;;;14.44;100.00;98937.14;105901;1256;63218;-80
2024/04/15 00:48:42;;;;;;;;;;;;;;;14.12;100.00;98930.63;105871;1260;62419;-80
2024/04/15 00:51:10;;;;;;;;;;;;;;;14.05;100.00;98932.05;105818;1254;77696;-80
2024/04/15 00:53:37;;;;;;;;;;;;;;;14.15;100.00;98932.52;105951;1257;68401;-79
2024/04/15 00:56:04;;;;;;;;;;;;;;;14.11;100.00;98936.13;105992;1253;73664;-80
2024/04/15 00:58:32;;;;;;;;;;;;;;;14.08;100.00;98932.34;106017;1253;62048;-80
2024/04/15 01:01:00;;;;;;;;;;;;;;;13.95;100.00;98929.77;106107;1257;62098;-80
2024/04/15 01:03:27;;;;;;;;;;;;;;;13.84;100.00;98926.69;106323;1254;76164;-80
2024/04/15 01:05:55;;;;;;;;;;;;;;;13.88;100.00;98925.39;106133;1257;71053;-80
2024/04/15 01:08:24;;;;;;;;;;;;;;;13.75;100.00;98924.21;106046;1254;74829;-80
2024/04/15 01:10:51;;;;;;;;;;;;;;;13.73;100.00;98918.79;105993;1253;63495;-80
2024/04/15 01:13:27;;;;;;;;;;;;;;;13.63;100.00;98923.61;105909;1253;62117;-79
2024/04/15 01:15:58;;;;;;;;;;;;;;;13.51;100.00;98920.85;105822;1253;77969;-83
2024/04/15 01:18:25;;;;;;;;;;;;;;;13.51;100.00;98920.90;105812;1253;69227;-83
2024/04/15 01:20:54;;;;;;;;;;;;;;;13.47;100.00;98923.21;107713;1252;71889;-78
2024/04/15 01:23:56;;;;;;;;;;;;;;;13.29;100.00;98920.77;109541;1252;62721;-79
2024/04/15 01:26:24;;;;;;;;;;;;;;;12.82;100.00;98916.76;107347;1253;62114;-80
2024/04/15 01:28:51;;;;;;;;;;;;;;;12.85;100.00;98919.91;106288;1253;75397;-81
2024/04/15 01:31:18;;;;;;;;;;;;;;;12.75;100.00;98911.55;106363;1257;69069;-80
2024/04/15 01:33:46;;;;;;;;;;;;;;;12.68;100.00;98905.69;106353;1253;71449;-79
2024/04/15 01:36:13;;;;;;;;;;;;;;;12.56;100.00;98900.13;106330;1253;62445;-80
2024/04/15 01:38:41;;;;;;;;;;;;;;;12.43;100.00;98895.67;106252;1259;61951;-80
2024/04/15 01:41:08;;;;;;;;;;;;;;;12.40;100.00;98893.27;106189;1259;76868;-79
2024/04/15 01:43:36;;;;;;;;;;;;;;;12.36;100.00;98890.03;106202;1254;70636;-79
2024/04/15 01:46:03;;;;;;;;;;;;;;;12.38;100.00;98884.20;106196;1257;74124;-80
2024/04/15 01:48:30;;;;;;;;;;;;;;;12.39;100.00;98880.37;106232;1259;62161;-79
2024/04/15 01:50:58;;;;;;;;;;;;;;;12.39;100.00;98870.41;106276;1254;62062;-80
2024/04/15 01:53:26;;;;;;;;;;;;;;;12.34;100.00;98867.80;106083;1254;77421;-80
2024/04/15 01:55:53;;;;;;;;;;;;;;;12.18;100.00;98868.20;106232;1259;70256;-79
2024/04/15 01:58:21;;;;;;;;;;;;;;;12.15;100.00;98871.83;106101;1254;72616;-79
2024/04/15 02:00:48;;;;;;;;;;;;;;;12.22;100.00;98868.77;106058;1259;63930;-83
2024/04/15 02:03:16;;;;;;;;;;;;;;;12.24;100.00;98863.48;106144;1254;62059;-80
2024/04/15 02:05:43;;;;;;;;;;;;;;;12.18;100.00;98867.88;106086;1254;76858;-81
2024/04/15 02:08:11;;;;;;;;;;;;;;;12.03;100.00;98871.33;106116;1254;70067;-81
2024/04/15 02:10:38;;;;;;;;;;;;;;;12.13;100.00;98866.95;106053;1253;74916;-80
2024/04/15 02:13:06;;;;;;;;;;;;;;;12.13;100.00;98872.92;106085;1257;62204;-80
2024/04/15 02:15:33;;;;;;;;;;;;;;;12.10;100.00;98873.32;106039;1256;61930;-80
2024/04/15 02:18:01;;;;;;;;;;;;;;;12.10;100.00;98873.10;106188;1254;74422;-80
2024/04/15 02:20:28;;;;;;;;;;;;;;;12.11;100.00;98880.36;106141;1257;69774;-80
2024/04/15 02:22:56;;;;;;;;;;;;;;;12.11;100.00;98881.70;106464;1254;74844;-80
2024/04/15 02:25:27;;;;;;;;;;;;;;;12.12;100.00;98878.90;106143;1253;62120;-81
2024/04/15 02:27:54;;;;;;;;;;;;;;;12.10;100.00;98880.41;106121;1255;62026;-79
2024/04/15 02:30:22;;;;;;;;;;;;;;;12.07;100.00;98881.52;106157;1253;76671;-80
2024/04/15 02:32:49;;;;;;;;;;;;;;;12.07;100.00;98886.64;106152;1255;70008;-79
2024/04/15 02:35:17;;;;;;;;;;;;;;;12.04;100.00;98879.38;106116;1254;72404;-80
2024/04/15 02:37:45;;;;;;;;;;;;;;;11.99;100.00;98877.70;106241;1253;62167;-79
2024/04/15 02:40:12;;;;;;;;;;;;;;;11.77;100.00;98877.55;106276;1257;62643;-78
2024/04/15 02:42:42;;;;;;;;;;;;;;;11.58;100.00;98882.42;106277;1253;76955;-80
2024/04/15 02:45:11;;;;;;;;;;;;;;;11.67;100.00;98882.21;106316;1255;66703;-80
2024/04/15 02:47:38;;;;;;;;;;;;;;;11.58;100.00;98880.33;106233;1254;74914;-80
2024/04/15 02:50:06;;;;;;;;;;;;;;;11.47;100.00;98887.95;106246;1257;62246;-80
2024/04/15 02:52:34;;;;;;;;;;;;;;;11.47;100.00;98881.46;106370;1255;62078;-81
2024/04/15 02:55:01;;;;;;;;;;;;;;;11.51;100.00;98884.66;106184;1253;76417;-82
2024/04/15 02:57:29;;;;;;;;;;;;;;;11.45;100.00;98886.77;106307;1255;68062;-80
2024/04/15 02:59:57;;;;;;;;;;;;;;;11.35;100.00;98879.20;106376;1256;73504;-80
2024/04/15 03:02:24;;;;;;;;;;;;;;;11.26;100.00;98879.88;106160;1254;62137;-79
2024/04/15 03:04:51;;;;;;;;;;;;;;;11.18;100.00;98881.94;106294;1257;62045;-80
2024/04/15 03:07:19;;;;;;;;;;;;;;;11.05;100.00;98878.48;106234;1257;77905;-82
2024/04/15 03:09:47;;;;;;;;;;;;;;;11.13;100.00;98879.97;106312;1252;70769;-81
2024/04/15 03:12:16;;;;;;;;;;;;;;;11.20;100.00;98880.11;106273;1253;72670;-80
2024/04/15 03:14:44;;;;;;;;;;;;;;;11.13;100.00;98882.00;106329;1253;63108;-82
2024/04/15 03:17:11;;;;;;;;;;;;;;;11.12;100.00;98878.52;106467;1254;62050;-78
2024/04/15 03:19:38;;;;;;;;;;;;;;;11.16;100.00;98874.91;106304;1253;74500;-79
2024/04/15 03:22:08;;;;;;;;;;;;;;;11.18;100.00;98874.65;106312;1256;67965;-78
2024/04/15 03:24:36;;;;;;;;;;;;;;;10.94;100.00;98874.65;106473;1253;70482;-78
2024/04/15 03:27:05;;;;;;;;;;;;;;;10.88;100.00;98870.70;106201;1260;62474;-78
2024/04/15 03:29:34;;;;;;;;;;;;;;;10.97;100.00;98873.52;106247;1260;62034;-77
2024/04/15 03:32:01;;;;;;;;;;;;;;;11.08;100.00;98872.84;106144;1254;76652;-78
2024/04/15 03:34:29;;;;;;;;;;;;;;;11.28;100.00;98862.20;106236;1260;71019;-80
2024/04/15 03:36:56;;;;;;;;;;;;;;;11.44;100.00;98861.59;106176;1254;73109;-80
2024/04/15 03:39:25;;;;;;;;;;;;;;;11.54;100.00;98862.17;106163;1256;63115;-79
2024/04/15 03:41:52;;;;;;;;;;;;;;;11.81;100.00;98862.79;106217;1256;62158;-79
2024/04/15 03:44:19;;;;;;;;;;;;;;;11.96;100.00;98852.98;106112;1254;77567;-79
2024/04/15 03:46:47;;;;;;;;;;;;;;;12.06;100.00;98852.53;106105;1256;70605;-79
2024/04/15 03:49:15;;;;;;;;;;;;;;;12.45;100.00;98852.59;106050;1255;72950;-79
2024/04/15 03:51:43;;;;;;;;;;;;;;;12.66;100.00;98858.59;106073;1254;62832;-79
2024/04/15 03:54:10;;;;;;;;;;;;;;;12.87;100.00;98861.88;106080;1260;62080;-81
2024/04/15 03:56:38;;;;;;;;;;;;;;;12.92;100.00;98863.54;106023;1254;77759;-80
2024/04/15 03:59:06;;;;;;;;;;;;;;;12.98;100.00;98869.67;108452;1254;67823;-80
2024/04/15 04:01:33;;;;;;;;;;;;;;;12.81;100.00;98871.41;109546;1254;73754;-79
2024/04/15 04:08:32;;;;;;;;;;;;;;;12.71;100.00;98883.09;106012;1259;62202;-78
2024/04/15 04:11:32;;;;;;;;;;;;;;;12.47;100.00;98884.23;106083;1254;77698;-79
2024/04/15 04:13:59;;;;;;;;;;;;;;;12.49;100.00;98882.65;106075;1254;70645;-78
2024/04/15 04:16:26;;;;;;;;;;;;;;;12.54;100.00;98883.27;106208;1259;73115;-78
2024/04/15 04:18:55;;;;;;;;;;;;;;;12.64;100.00;98876.05;106060;1259;64200;-78
2024/04/15 04:21:23;;;;;;;;;;;;;;;12.35;100.00;98876.40;106031;1254;62124;-81
2024/04/15 04:23:50;;;;;;;;;;;;;;;12.38;100.00;98876.61;106166;1255;74690;-79
2024/04/15 04:26:18;;;;;;;;;;;;;;;12.86;100.00;98875.90;106085;1254;70456;-78
2024/04/15 04:28:45;;;;;;;;;;;;;;;13.16;100.00;98872.50;106329;1258;75434;-78
2024/04/15 04:31:12;;;;;;;;;;;;;;;13.59;100.00;98866.06;106307;1258;62105;-79
2024/04/15 04:33:40;;;;;;;;;;;;;;;13.65;100.00;98861.51;106172;1254;61976;-77
2024/04/15 04:36:07;;;;;;;;;;;;;;;13.99;100.00;98858.66;106265;1258;74721;-78
2024/04/15 04:38:35;;;;;;;;;;;;;;;14.42;100.00;98854.40;106116;1254;69019;-78
2024/04/15 04:41:02;;;;;;;;;;;;;;;14.67;100.00;98849.74;106088;1256;71449;-79
2024/04/15 04:43:30;;;;;;;;;;;;;;;14.82;100.00;98846.98;106376;1257;62166;-79
2024/04/15 04:45:57;;;;;;;;;;;;;;;14.77;100.00;98846.89;106428;1259;60604;-79
2024/04/15 04:48:24;;;;;;;;;;;;;;;14.85;100.00;98839.46;106335;1253;73675;-78
2024/04/15 04:50:52;;;;;;;;;;;;;;;15.10;100.00;98838.92;106235;1253;67542;-78
2024/04/15 04:53:19;;;;;;;;;;;;;;;15.40;100.00;98838.31;106072;1254;72687;-78
2024/04/15 04:55:46;;;;;;;;;;;;;;;15.75;99.50;98837.48;106036;1258;63012;-77
2024/04/15 04:58:14;;;;;;;;;;;;;;;15.69;98.83;98834.89;106194;1253;62144;-78
2024/04/15 05:00:41;;;;;;;;;;;;;;;15.70;99.82;98839.13;106158;1258;74262;-79
2024/04/15 05:03:09;;;;;;;;;;;;;;;15.99;97.67;98837.89;106047;1259;68403;-78
2024/04/15 05:05:37;;;;;;;;;;;;;;;16.25;97.09;98834.34;106140;1254;74859;-79
2024/04/15 05:08:04;;;;;;;;;;;;;;;16.41;96.54;98837.91;106105;1253;62033;-77
2024/04/15 05:10:35;;;;;;;;;;;;;;;16.70;95.26;98832.44;106095;1260;62118;-78
2024/04/15 05:13:03;;;;;;;;;;;;;;;16.60;95.02;98835.58;106230;1258;77397;-78
2024/04/15 05:15:31;;;;;;;;;;;;;;;16.77;95.31;98833.03;106141;1258;70024;-78
2024/04/15 05:17:58;;;;;;;;;;;;;;;16.36;96.79;98832.60;106029;1253;73610;-78
2024/04/15 05:20:26;;;;;;;;;;;;;;;16.44;96.92;98831.55;106051;1258;62176;-77
2024/04/15 05:22:53;;;;;;;;;;;;;;;16.66;96.49;98830.83;106085;1258;62187;-77
2024/04/15 05:25:21;;;;;;;;;;;;;;;16.60;95.30;98834.48;106186;1258;78047;-76
2024/04/15 05:27:48;;;;;;;;;;;;;;;16.58;96.64;98831.58;106012;1253;70100;-77
2024/04/15 05:30:16;;;;;;;;;;;;;;;16.64;96.20;98831.05;106058;1253;75263;-78
2024/04/15 05:32:43;;;;;;;;;;;;;;;16.57;96.53;98830.52;106150;1253;64237;-75
2024/04/15 05:35:10;;;;;;;;;;;;;;;16.25;99.14;98833.55;106169;1253;62232;-76
2024/04/15 05:37:38;;;;;;;;;;;;;;;16.80;97.03;98826.95;105974;1253;171986;-76
2024/04/15 05:40:05;;;;;;;;;;;;;;;16.68;95.49;98828.92;106089;1253;71059;-76
2024/04/15 05:42:33;;;;;;;;;;;;;;;16.51;93.21;98829.85;106138;1257;74056;-75
2024/04/15 05:45:00;;;;;;;;;;;;;;;16.36;90.66;98832.64;106158;1253;62296;-75
2024/04/15 05:47:28;;;;;;;;;;;;;;;16.77;88.23;98830.92;106631;1258;62001;-76
2024/04/15 05:49:55;;;;;;;;;;;;;;;16.97;89.05;98830.63;106348;1257;77021;-76
2024/04/15 05:52:23;;;;;;;;;;;;;;;17.45;86.16;98842.48;106231;1252;70616;-75
2024/04/15 05:54:50;;;;;;;;;;;;;;;17.78;82.60;98845.36;106418;1253;74975;-78
2024/04/15 05:57:18;;;;;;;;;;;;;;;17.20;82.79;98845.16;106232;1257;63983;-81
2024/04/15 05:59:47;;;;;;;;;;;;;;;17.33;82.58;98838.80;106261;1258;62147;-76
2024/04/15 06:02:14;;;;;;;;;;;;;;;17.51;82.99;98840.02;106646;1257;77486;-76
2024/04/15 06:04:42;;;;;;;;;;;;;;;17.64;81.63;98838.70;106905;1253;71032;-74
2024/04/15 06:07:09;;;;;;;;;;;;;;;17.73;81.26;98835.77;106254;1258;74446;-76
2024/04/15 06:09:43;;;;;;;;;;;;;;;18.01;79.55;98836.95;106196;1253;63948;-77
2024/04/15 06:12:11;;;;;;;;;;;;;;;17.67;77.94;98835.09;106490;1253;62172;-76
2024/04/15 06:14:38;;;;;;;;;;;;;;;17.39;79.54;98826.77;106231;1257;77727;-77
2024/04/15 06:17:05;;;;;;;;;;;;;;;17.51;75.72;98824.68;106142;1253;69536;-77
2024/04/15 06:19:33;;;;;;;;;;;;;;;17.93;75.57;98816.98;106241;1253;71484;-76
2024/04/15 06:22:01;;;;;;;;;;;;;;;18.17;75.13;98816.49;106319;1253;62066;-77
2024/04/15 06:24:30;;;;;;;;;;;;;;;18.51;72.18;98818.38;106352;1253;62093;-77
2024/04/15 06:26:58;;;;;;;;;;;;;;;18.36;65.89;98818.13;106222;1253;75961;-77
2024/04/15 06:29:25;;;;;;;;;;;;;;;18.42;59.49;98813.90;106098;1257;68420;-77
2024/04/15 06:31:53;;;;;;;;;;;;;;;18.46;59.99;98806.22;106151;1253;75159;-76
2024/04/15 06:34:21;;;;;;;;;;;;;;;18.62;57.62;98808.85;106384;1253;62572;-76
2024/04/15 06:36:52;;;;;;;;;;;;;;;18.44;58.04;98805.45;106273;1260;62133;-76
2024/04/15 06:39:19;;;;;;;;;;;;;;;18.76;56.02;98813.15;106128;1253;77753;-74
2024/04/15 06:41:47;;;;;;;;;;;;;;;18.86;55.25;98810.92;106197;1253;70998;-77
2024/04/15 06:44:14;;;;;;;;;;;;;;;18.63;55.03;98812.84;106112;1253;75106;-76
2024/04/15 06:46:42;;;;;;;;;;;;;;;18.58;54.92;98812.38;105966;1255;62076;-77
2024/04/15 06:49:09;;;;;;;;;;;;;;;18.54;55.29;98810.75;105960;1253;62184;-77
2024/04/15 06:51:38;;;;;;;;;;;;;;;18.71;52.63;98808.06;105839;1255;74347;-76
2024/04/15 06:54:06;;;;;;;;;;;;;;;18.30;50.49;98803.84;105849;1261;69864;-76
2024/04/15 06:56:34;;;;;;;;;;;;;;;18.09;49.32;98798.77;105754;1259;74109;-77
2024/04/15 06:59:01;;;;;;;;;;;;;;;18.43;50.29;98803.59;105750;1260;62117;-77
2024/04/15 07:01:33;;;;;;;;;;;;;;;18.85;48.74;98803.18;105791;1260;62063;-78
2024/04/15 07:04:05;;;;;;;;;;;;;;;18.96;46.69;98794.01;105833;1260;76341;-78
2024/04/15 07:06:33;;;;;;;;;;;;;;;18.82;45.31;98795.89;105891;1255;71029;-79
2024/04/15 07:09:01;;;;;;;;;;;;;;;18.62;45.94;98806.20;105845;1259;74974;-78
2024/04/15 07:11:28;;;;;;;;;;;;;;;18.52;46.43;98812.72;105777;1256;62185;-78
2024/04/15 07:13:56;;;;;;;;;;;;;;;18.48;46.77;98809.82;105805;1261;62163;-78
2024/04/15 07:16:23;;;;;;;;;;;;;;;18.52;45.77;98807.63;105844;1260;76130;-78
2024/04/15 07:18:52;;;;;;;;;;;;;;;18.67;43.85;98793.89;105871;1256;70611;-77
2024/04/15 07:21:28;;;;;;;;;;;;;;;18.83;43.49;98784.94;105973;1261;73052;-79
2024/04/15 07:23:56;;;;;;;;;;;;;;;18.98;41.87;98782.33;106010;1253;62357;-78
2024/04/15 07:26:23;;;;;;;;;;;;;;;19.12;42.01;98791.12;106058;1253;62194;-77
2024/04/15 07:28:54;;;;;;;;;;;;;;;19.34;40.78;98800.17;106378;1253;77413;-80
2024/04/15 07:31:22;;;;;;;;;;;;;;;19.39;40.12;98790.09;106511;1257;67083;-77
2024/04/15 07:33:50;;;;;;;;;;;;;;;19.04;38.03;98781.81;106369;1258;72767;-79
2024/04/15 07:36:21;;;;;;;;;;;;;;;19.22;36.49;98781.04;106408;1253;62105;-80
2024/04/15 07:39:11;;;;;;;;;;;;;;;19.54;35.18;98779.27;106842;1253;62112;-77
2024/04/15 07:42:17;;;;;;;;;;;;;;;19.86;35.62;98773.70;106088;1256;74126;-79
2024/04/15 07:44:58;;;;;;;;;;;;;;;19.99;33.77;98784.44;105799;1261;70964;-79
2024/04/15 07:47:26;;;;;;;;;;;;;;;20.01;33.43;98791.45;105810;1256;71705;-77
2024/04/15 07:49:55;;;;;;;;;;;;;;;19.83;33.91;98785.52;105609;1261;62285;-79
2024/04/15 07:52:23;;;;;;;;;;;;;;;20.31;33.27;98780.73;105833;1258;62019;-80
2024/04/15 07:54:51;;;;;;;;;;;;;;;20.04;33.32;98776.83;106010;1260;76653;-78
2024/04/15 07:57:20;;;;;;;;;;;;;;;20.09;32.46;98772.95;105761;1261;66787;-81
2024/04/15 07:59:48;;;;;;;;;;;;;;;20.28;32.02;98774.02;105726;1259;73864;-81
2024/04/15 08:02:15;;;;;;;;;;;;;;;19.96;32.15;98778.04;105628;1259;62388;-80
2024/04/15 08:04:43;;;;;;;;;;;;;;;19.60;31.62;98781.85;105506;1259;63262;-81
2024/04/15 08:07:10;;;;;;;;;;;;;;;19.38;32.34;98784.05;105460;1258;76618;-80
2024/04/15 08:09:42;;;;;;;;;;;;;;;19.17;33.05;98785.72;105505;1264;69885;-81
2024/04/15 08:12:11;;;;;;;;;;;;;;;19.04;33.44;98786.77;105870;1259;75203;-78
2024/04/15 08:14:39;;;;;;;;;;;;;;;18.81;33.52;98792.13;106466;1255;62123;-80
2024/04/15 08:17:07;;;;;;;;;;;;;;;18.72;33.68;98795.04;106245;1255;62165;-80
2024/04/15 08:19:35;;;;;;;;;;;;;;;18.74;34.66;98793.47;106003;1256;76031;-79
2024/04/15 08:22:03;;;;;;;;;;;;;;;18.54;35.08;98794.77;105978;1256;70736;-82
2024/04/15 08:24:30;;;;;;;;;;;;;;;18.52;35.32;98797.06;106186;1256;73760;-79
2024/04/15 08:26:58;;;;;;;;;;;;;;;18.40;35.81;98797.27;105995;1256;62102;-81
2024/04/15 08:29:26;;;;;;;;;;;;;;;18.14;35.63;98799.66;106058;1259;62042;-80
2024/04/15 08:31:53;;;;;;;;;;;;;;;18.18;37.07;98796.66;105867;1253;77349;-81
2024/04/15 08:34:22;;;;;;;;;;;;;;;18.12;36.60;98797.80;106002;1253;71029;-78
2024/04/15 08:36:50;;;;;;;;;;;;;;;18.15;37.07;98801.10;106091;1253;75636;-81
2024/04/15 08:39:17;;;;;;;;;;;;;;;18.05;37.01;98806.87;106012;1257;62002;-80
2024/04/15 08:41:49;;;;;;;;;;;;;;;17.96;37.79;98809.96;105970;1253;62233;-81
2024/04/15 08:44:32;;;;;;;;;;;;;;;17.99;38.09;98800.96;106130;1253;75739;-81
2024/04/15 08:47:02;;;;;;;;;;;;;;;18.05;38.76;98799.06;106197;1253;71036;-82
2024/04/15 08:49:30;;;;;;;;;;;;;;;18.09;38.70;98796.26;106270;1257;74989;-81
2024/04/15 08:51:57;;;;;;;;;;;;;;;17.92;38.50;98794.14;106162;1253;62068;-79
2024/04/15 08:54:27;;;;;;;;;;;;;;;17.79;39.06;98795.65;106122;1253;62136;-79
2024/04/15 08:56:54;;;;;;;;;;;;;;;17.73;40.02;98789.10;106245;1253;77691;-82
2024/04/15 08:59:22;;;;;;;;;;;;;;;17.62;40.41;98789.67;106344;1253;71029;-79
2024/04/15 09:01:49;;;;;;;;;;;;;;;17.37;39.95;98788.84;106385;1253;74150;-80
2024/04/15 09:04:18;;;;;;;;;;;;;;;17.18;40.65;98784.80;106279;1253;62087;-81
2024/04/15 09:06:46;;;;;;;;;;;;;;;16.97;41.21;98784.52;106249;1253;60789;-79
2024/04/15 09:09:14;;;;;;;;;;;;;;;16.89;41.60;98779.65;106536;1253;75288;-80
2024/04/15 09:11:41;;;;;;;;;;;;;;;16.92;41.41;98783.42;106314;1253;71272;-79
2024/04/15 09:14:09;;;;;;;;;;;;;;;16.86;41.46;98781.52;106318;1253;73404;-80
2024/04/15 09:16:36;;;;;;;;;;;;;;;16.86;42.07;98777.31;106455;1253;62387;-81
2024/04/15 09:19:09;;;;;;;;;;;;;;;16.94;41.55;98771.17;106612;1257;62104;-83
2024/04/15 09:21:37;;;;;;;;;;;;;;;16.86;41.67;98763.16;107010;1253;76589;-80
2024/04/15 09:24:05;;;;;;;;;;;;;;;16.72;41.19;98761.69;106580;1257;70078;-83
2024/04/15 09:26:32;;;;;;;;;;;;;;;16.81;41.45;98760.48;106527;1253;75221;-79
2024/04/15 09:29:02;;;;;;;;;;;;;;;16.65;42.41;98754.13;106541;1259;62015;-83
2024/04/15 09:31:31;;;;;;;;;;;;;;;16.66;42.81;98751.86;106431;1253;62147;-82
2024/04/15 09:33:58;;;;;;;;;;;;;;;16.55;43.22;98753.80;106457;1253;76631;-81
2024/04/15 09:36:34;;;;;;;;;;;;;;;16.68;43.87;98759.52;106351;1258;69026;-81
2024/04/15 09:39:02;;;;;;;;;;;;;;;16.55;44.07;98751.41;106300;1253;73754;-80
2024/04/15 09:41:29;;;;;;;;;;;;;;;16.67;44.19;98746.90;106392;1258;62140;-79
2024/04/15 09:43:57;;;;;;;;;;;;;;;16.72;44.48;98744.63;106556;1253;62223;-81
2024/04/15 09:46:32;;;;;;;;;;;;;;;16.80;44.75;98740.84;106534;1253;76728;-76
2024/04/15 09:49:03;;;;;;;;;;;;;;;16.89;44.81;98721.23;106419;1253;70752;-79
2024/04/15 09:51:31;;;;;;;;;;;;;;;17.12;44.24;98713.62;106401;1253;73804;-81
2024/04/15 09:54:04;;;;;;;;;;;;;;;17.18;44.04;98709.36;106291;1259;62001;-80
2024/04/15 09:56:31;;;;;;;;;;;;;;;17.41;44.34;98709.30;106411;1253;62028;-80
2024/04/15 09:58:59;;;;;;;;;;;;;;;17.74;44.41;98693.60;106371;1257;77343;-78
2024/04/15 10:01:31;;;;;;;;;;;;;;;17.93;43.75;98691.10;106243;1253;69821;-81
2024/04/15 10:04:03;;;;;;;;;;;;;;;17.92;43.25;98693.69;108563;1253;72843;-81
2024/04/15 10:06:33;;;;;;;;;;;;;;;18.12;43.15;98705.14;109625;1253;59877;-81
2024/04/15 10:09:02;;;;;;;;;;;;;;;18.29;43.64;98713.80;109247;1253;60975;-78
2024/04/15 10:11:30;;;;;;;;;;;;;;;18.21;42.67;98726.55;107620;1253;76546;-79
2024/04/15 10:13:59;;;;;;;;;;;;;;;17.95;43.14;98735.38;106564;1259;69602;-84
2024/04/15 10:16:26;;;;;;;;;;;;;;;17.67;43.81;98738.90;106316;1258;73232;-82
2024/04/15 10:19:11;;;;;;;;;;;;;;;17.30;44.78;98740.61;106247;1253;62145;-77
2024/04/15 10:21:40;;;;;;;;;;;;;;;16.92;46.23;98740.92;106234;1253;62233;-78
2024/04/15 10:24:10;;;;;;;;;;;;;;;16.83;49.00;98745.83;106170;1253;77742;-76
2024/04/15 10:26:38;;;;;;;;;;;;;;;16.26;54.39;98752.45;106068;1259;68844;-80
2024/04/15 10:29:12;;;;;;;;;;;;;;;15.65;61.35;98753.05;106119;1259;74890;-76
2024/04/15 10:31:40;;;;;;;;;;;;;;;15.19;68.71;98770.46;106195;1253;63983;-76
2024/04/15 10:34:08;;;;;;;;;;;;;;;14.71;76.13;98773.73;106354;1253;62185;-77
2024/04/15 10:36:35;;;;;;;;;;;;;;;14.65;78.90;98760.09;106351;1253;77716;-76
2024/04/15 10:39:03;;;;;;;;;;;;;;;14.57;81.73;98752.63;106986;1253;69823;-76
2024/04/15 10:41:31;;;;;;;;;;;;;;;14.30;85.47;98751.86;107671;1256;72754;-75
2024/04/15 10:43:59;;;;;;;;;;;;;;;14.13;89.66;98747.85;108668;1253;62355;-77
2024/04/15 10:47:01;;;;;;;;;;;;;;;13.98;92.92;98749.88;106120;1253;62029;-80
2024/04/15 10:49:29;;;;;;;;;;;;;;;13.63;96.10;98743.23;106381;1253;78093;-80
2024/04/15 10:51:57;;;;;;;;;;;;;;;13.50;96.33;98755.17;106035;1257;69851;-81
2024/04/15 10:54:24;;;;;;;;;;;;;;;13.33;94.94;98777.88;105944;1253;73909;-77
2024/04/15 10:56:52;;;;;;;;;;;;;;;13.35;92.94;98783.85;106006;1259;63035;-75
2024/04/15 10:59:19;;;;;;;;;;;;;;;13.45;91.94;98782.58;106030;1258;62036;-79
2024/04/15 11:01:47;;;;;;;;;;;;;;;13.25;92.64;98778.46;105865;1256;73246;-79
2024/04/15 11:04:14;;;;;;;;;;;;;;;13.36;92.54;98767.08;105883;1256;69921;-76
2024/04/15 11:06:43;;;;;;;;;;;;;;;13.33;92.82;98746.51;105947;1260;75174;-75
2024/04/15 11:09:10;;;;;;;;;;;;;;;13.29;92.93;98730.80;105856;1256;63692;-75
2024/04/15 11:11:39;;;;;;;;;;;;;;;13.41;94.22;98732.98;105877;1254;62131;-75
2024/04/15 11:14:10;;;;;;;;;;;;;;;13.49;94.46;98742.66;105699;1256;75413;-75
2024/04/15 11:16:42;;;;;;;;;;;;;;;13.55;94.85;98746.47;105985;1256;69325;-76
2024/04/15 11:19:10;;;;;;;;;;;;;;;13.64;95.02;98755.23;106230;1256;73195;-76
2024/04/15 11:21:38;;;;;;;;;;;;;;;13.64;95.86;98756.73;105934;1256;63897;-75
2024/04/15 11:24:07;;;;;;;;;;;;;;;13.47;96.29;98762.32;105981;1257;62243;-76
2024/04/15 11:26:36;;;;;;;;;;;;;;;13.62;97.53;98749.71;105929;1262;76297;-77
2024/04/15 11:29:06;;;;;;;;;;;;;;;13.93;96.40;98728.99;106071;1261;68989;-75
2024/04/15 11:31:33;;;;;;;;;;;;;;;14.00;96.78;98725.63;106022;1256;73705;-76
2024/04/15 11:34:01;;;;;;;;;;;;;;;14.06;95.79;98723.80;106124;1260;61994;-77
2024/04/15 11:36:29;;;;;;;;;;;;;;;14.01;95.76;98718.11;106375;1258;61978;-77
2024/04/15 11:38:57;;;;;;;;;;;;;;;14.07;91.44;98714.77;107881;1252;77665;-78
2024/04/15 11:41:30;;;;;;;;;;;;;;;13.95;88.43;98705.66;107871;1253;69747;-76
2024/04/15 11:44:02;;;;;;;;;;;;;;;13.93;87.47;98711.77;106692;1253;74764;-79
2024/04/15 11:46:31;;;;;;;;;;;;;;;13.92;84.44;98715.66;107877;1253;60733;-76
2024/04/15 11:49:01;;;;;;;;;;;;;;;13.86;84.75;98716.31;107953;1253;62292;-77
2024/04/15 11:51:30;;;;;;;;;;;;;;;13.89;84.66;98718.14;107111;1253;76529;-76
2024/04/15 11:53:57;;;;;;;;;;;;;;;13.68;83.49;98722.65;108088;1253;71078;-78
2024/04/15 11:56:25;;;;;;;;;;;;;;;13.74;82.78;98714.46;107938;1256;72645;-79
2024/04/15 11:58:52;;;;;;;;;;;;;;;13.47;83.03;98702.68;107779;1255;63712;-78
2024/04/15 12:01:21;;;;;;;;;;;;;;;13.37;83.92;98710.34;107755;1259;61467;-77
2024/04/15 12:03:49;;;;;;;;;;;;;;;13.29;82.37;98711.59;107639;1256;76837;-77
2024/04/15 12:06:18;;;;;;;;;;;;;;;13.25;81.62;98703.59;107583;1256;69670;-76
2024/04/15 12:08:46;;;;;;;;;;;;;;;13.18;80.86;98687.36;108053;1257;73728;-77
2024/04/15 12:11:14;;;;;;;;;;;;;;;13.24;81.08;98671.39;105678;1262;62037;-77
2024/04/15 12:13:42;;;;;;;;;;;;;;;13.20;80.40;98669.13;105689;1259;62555;-76
2024/04/15 12:16:13;;;;;;;;;;;;;;;13.17;80.91;98673.85;105729;1264;76252;-77
2024/04/15 12:18:41;;;;;;;;;;;;;;;13.26;79.07;98663.33;105718;1260;67183;-77
2024/04/15 12:21:08;;;;;;;;;;;;;;;13.17;80.46;98644.48;105594;1259;75037;-77
2024/04/15 12:23:36;;;;;;;;;;;;;;;13.15;80.69;98643.82;105601;1259;62062;-77
2024/04/15 12:26:03;;;;;;;;;;;;;;;13.00;81.37;98648.45;105580;1264;62141;-77
2024/04/15 12:28:32;;;;;;;;;;;;;;;13.12;82.12;98649.89;105569;1259;77275;-76
2024/04/15 12:30:59;;;;;;;;;;;;;;;13.14;82.10;98648.34;105517;1264;69545;-77
2024/04/15 12:33:27;;;;;;;;;;;;;;;13.24;81.63;98634.63;105552;1263;74882;-77
2024/04/15 12:35:57;;;;;;;;;;;;;;;13.23;82.17;98639.42;105620;1259;63367;-77
2024/04/15 12:38:25;;;;;;;;;;;;;;;13.32;81.36;98607.84;106171;1259;62121;-76
2024/04/15 12:40:52;;;;;;;;;;;;;;;13.31;80.15;98605.05;105842;1260;75862;-76
2024/04/15 12:43:20;;;;;;;;;;;;;;;13.21;80.35;98599.38;105913;1260;71075;-78
2024/04/15 12:45:47;;;;;;;;;;;;;;;13.37;79.88;98602.59;105941;1256;73753;-79